Fort Macleod, Canada
Current Conditions -  °F | °C
As of 1:00 PM on Monday 26 Jan 2015 (Local Time) from CYQL Reporting Station
Broken Clouds Broken Clouds  
Wind Chill: 64°   Ceiling: 29000
Heat Index: 64°   Visibility: 40mi
Dew Point: 32°   Wind: 18mph
Humidity: 30%   Direction: 190°S
Pressure: 29.86"   Gusts: NA
Location:  49.73°N, 113.4°W
Report Text: CYQL 262000Z 19016KT 40SM FEW150 BKN290 18/00 A2986 RMK AC1CI6 SLP112 DENSITY ALT 4100FT
Loading
Personal Weather Stations






























Interactive Weather Map New forecast layout! Learn more

10-Day Weather Forecast

Advertisements
Track Severe Weather on mobile